ADDS METAR Data INFO
IDs: Format: Raw Decoded Include TAF

Data at: 0837 UTC 21 Oct 2017

KVUJ 210820Z AUTO 00000KT 10SM CLR 08/08 A3030 RMK AO2 T00800078
KVUJ 210800Z AUTO 00000KT 10SM CLR 08/08 A3030 RMK AO2 T00810079
KVUJ 210740Z AUTO 00000KT 10SM CLR 08/08 A3030 RMK AO2 T00790077
KVUJ 210720Z AUTO 00000KT 10SM CLR 08/08 A3030 RMK AO2 T00800076
KVUJ 210700Z AUTO 00000KT 10SM CLR 08/08 A3030 RMK AO2 T00780076
KVUJ 210640Z AUTO 00000KT 10SM CLR 08/08 A3030 RMK AO2 T00820078
KVUJ 210620Z AUTO 00000KT 10SM CLR 09/08 A3030 RMK AO2 T00860081
KVUJ 210600Z AUTO 00000KT 10SM CLR 09/09 A3030 RMK AO2 T00860085
KVUJ 210540Z AUTO 00000KT 10SM CLR 09/08 A3030 RMK AO2 T00880083
KVUJ 210520Z AUTO 00000KT 10SM CLR 09/09 A3030 RMK AO2 T00920089
KVUJ 210500Z AUTO 00000KT 10SM CLR 09/09 A3030 RMK AO2 T00910086
KVUJ 210440Z AUTO 00000KT 10SM CLR 10/09 A3030 RMK AO2 T00960093
KVUJ 210420Z AUTO 00000KT 10SM CLR 09/09 A3030 RMK AO2 T00930089
KVUJ 210400Z AUTO 00000KT 10SM CLR 10/09 A3031 RMK AO2 T00990090
KVUJ 210340Z AUTO 00000KT 10SM CLR 10/10 A3030 RMK AO2 T01030095
KVUJ 210320Z AUTO 00000KT 10SM CLR 11/10 A3030 RMK AO2 T01050100
KVUJ 210300Z AUTO 00000KT 10SM CLR 10/10 A3029 RMK AO2 T01000096
KVUJ 210240Z AUTO 00000KT 10SM CLR 11/10 A3029 RMK AO2 T01060100
KVUJ 210220Z AUTO 00000KT 10SM CLR 11/10 A3029 RMK AO2 T01110100
KVUJ 210200Z AUTO 00000KT 10SM CLR 11/10 A3028 RMK AO2 T01110103
KVUJ 210140Z AUTO 00000KT 10SM CLR 12/11 A3027 RMK AO2 T01160107
KVUJ 210120Z AUTO 00000KT 10SM CLR 12/11 A3026 RMK AO2 T01200110
KVUJ 210100Z AUTO 00000KT 10SM CLR 12/10 A3026 RMK AO2 T01240102
KVUJ 210040Z AUTO 00000KT 10SM CLR 13/11 A3025 RMK AO2 T01250112
KVUJ 210020Z AUTO 00000KT 10SM CLR 13/11 A3026 RMK AO2 T01300107
KVUJ 210000Z AUTO 00000KT 10SM CLR 14/11 A3026 RMK AO2 T01350107
KVUJ 202340Z AUTO 00000KT 10SM CLR 14/11 A3026 RMK AO2 T01390111
KVUJ 202320Z AUTO 00000KT 10SM CLR 16/11 A3025 RMK AO2 T01580110
KVUJ 202300Z AUTO 00000KT 10SM CLR 17/12 A3025 RMK AO2 T01660116
KVUJ 202240Z AUTO 00000KT 10SM CLR 19/11 A3024 RMK AO2 T01880107
KVUJ 202220Z AUTO 00000KT 10SM CLR 21/11 A3024 RMK AO2 T02050106
KVUJ 202200Z AUTO 00000KT 10SM CLR 23/10 A3023 RMK AO2 T02250102
KVUJ 202140Z AUTO 00000KT 10SM CLR 25/10 A3023 RMK AO2 T02470097
KVUJ 202120Z AUTO 00000KT 10SM CLR 26/08 A3023 RMK AO2 T02600080
KVUJ 202100Z AUTO 00000KT 10SM CLR 26/07 A3023 RMK AO2 LTG DSNT W T02630074
KVUJ 202040Z AUTO 00000KT 10SM CLR 27/08 A3023 RMK AO2 T02650076
KVUJ 202020Z AUTO 14004KT 10SM CLR 27/08 A3023 RMK AO2 T02700076
KVUJ 202000Z AUTO 27003KT 10SM CLR 27/08 A3024 RMK AO2 T02650080
KVUJ 201940Z AUTO 00000KT 10SM CLR 27/08 A3024 RMK AO2 T02650084
KVUJ 201920Z AUTO 06003KT 10SM CLR 26/09 A3024 RMK AO2 T02640086
KVUJ 201900Z AUTO 06003KT 10SM CLR 26/09 A3025 RMK AO2 T02620088
KVUJ 201840Z AUTO 09003KT 10SM CLR 26/09 A3025 RMK AO2 T02640091
KVUJ 201820Z AUTO 00000KT 10SM CLR 26/09 A3026 RMK AO2 T02570085
KVUJ 201800Z AUTO 00000KT 10SM CLR 25/08 A3027 RMK AO2 T02510082
KVUJ 201740Z AUTO 08004KT 10SM CLR 25/08 A3028 RMK AO2 T02500084
KVUJ 201720Z AUTO 05006KT 10SM CLR 25/09 A3029 RMK AO2 T02520085
KVUJ 201700Z AUTO 05005KT 10SM CLR 25/08 A3030 RMK AO2 T02450080
KVUJ 201640Z AUTO 03006KT 10SM CLR 24/08 A3031 RMK AO2 T02430082
KVUJ 201620Z AUTO 06008KT 10SM CLR 24/08 A3032 RMK AO2 T02380076
KVUJ 201600Z AUTO 05007KT 10SM CLR 23/09 A3033 RMK AO2 T02330086
KVUJ 201540Z AUTO 05005KT 10SM CLR 22/09 A3033 RMK AO2 T02240087
KVUJ 201520Z AUTO 01007KT 10SM CLR 22/09 A3033 RMK AO2 T02160090
KVUJ 201500Z AUTO 01006KT 10SM CLR 21/09 A3034 RMK AO2 T02090085
KVUJ 201440Z AUTO 00000KT 10SM CLR 20/10 A3034 RMK AO2 T01960098
KVUJ 201420Z AUTO 00000KT 10SM CLR 18/10 A3034 RMK AO2 T01780103
KVUJ 201400Z AUTO 00000KT 10SM CLR 16/11 A3034 RMK AO2 T01640108
KVUJ 201340Z AUTO 00000KT 10SM CLR 15/11 A3034 RMK AO2 T01480108
KVUJ 201320Z AUTO 00000KT 10SM CLR 13/10 A3034 RMK AO2 T01300101
KVUJ 201300Z AUTO 00000KT 10SM CLR 11/10 A3034 RMK AO2 T01110096
KVUJ 201240Z AUTO 00000KT 10SM CLR 09/08 A3033 RMK AO2 T00850078
KVUJ 201220Z AUTO 00000KT 10SM CLR 06/05 A3032 RMK AO2 T00590053
KVUJ 201200Z AUTO 00000KT 10SM CLR 04/04 A3031 RMK AO2 T00400037
KVUJ 201140Z AUTO 00000KT 10SM CLR 04/04 A3030 RMK AO2 T00440041
KVUJ 201120Z AUTO 00000KT 10SM CLR 05/04 A3030 RMK AO2 T00450042
KVUJ 201100Z AUTO 00000KT 10SM CLR 05/04 A3030 RMK AO2 T00490044
KVUJ 201040Z AUTO 00000KT 10SM CLR 05/04 A3030 RMK AO2 T00490043
KVUJ 201020Z AUTO 00000KT 10SM CLR 05/04 A3030 RMK AO2 T00450040
KVUJ 201000Z AUTO 00000KT 10SM CLR 05/05 A3029 RMK AO2 T00490046
KVUJ 200940Z AUTO 00000KT 10SM CLR 05/05 A3028 RMK AO2 T00480045
KVUJ 200920Z AUTO 00000KT 10SM CLR 05/05 A3027 RMK AO2 T00530050
KVUJ 200900Z AUTO 00000KT 10SM CLR 06/05 A3027 RMK AO2 T00550053
KVUJ 200840Z AUTO 00000KT 10SM CLR 05/05 A3027 RMK AO2 T00530050
KVUJ 200820Z AUTO 00000KT 10SM CLR 06/06 A3026 RMK AO2 T00560055
KVUJ 200800Z AUTO 00000KT 10SM CLR 06/05 A3027 RMK AO2 T00550050
KVUJ 200740Z AUTO 00000KT 10SM CLR 05/05 A3027 RMK AO2 T00540051
KVUJ 200720Z AUTO 00000KT 10SM CLR 05/05 A3027 RMK AO2 T00540047
KVUJ 200700Z AUTO 00000KT 10SM CLR 06/06 A3027 RMK AO2 T00600055
KVUJ 200640Z AUTO 00000KT 10SM CLR 06/05 A3027 RMK AO2 T00560052
KVUJ 200620Z AUTO 00000KT 10SM CLR 06/05 A3027 RMK AO2 T00570054
KVUJ 200600Z AUTO 00000KT 10SM CLR 06/05 A3027 RMK AO2 T00570051
KVUJ 200540Z AUTO 00000KT 10SM CLR 06/06 A3027 RMK AO2 T00620055
KVUJ 200520Z AUTO 00000KT 10SM CLR 06/05 A3027 RMK AO2 T00620053
KVUJ 200500Z AUTO 00000KT 10SM CLR 07/06 A3027 RMK AO2 T00650059
KVUJ 200440Z AUTO 00000KT 10SM CLR 06/06 A3028 RMK AO2 T00630056
KVUJ 200420Z AUTO 00000KT 10SM CLR 07/06 A3028 RMK AO2 T00650057
KVUJ 200400Z AUTO 00000KT 10SM CLR 07/06 A3029 RMK AO2 T00670059
KVUJ 200340Z AUTO 00000KT 10SM CLR 07/06 A3029 RMK AO2 T00700057
KVUJ 200320Z AUTO 00000KT 10SM CLR 07/06 A3029 RMK AO2 T00660060
KVUJ 200300Z AUTO 00000KT 10SM CLR 07/06 A3029 RMK AO2 T00710060
KVUJ 200240Z AUTO 00000KT 10SM CLR 08/07 A3029 RMK AO2 T00750066
KVUJ 200220Z AUTO 00000KT 10SM CLR 07/06 A3029 RMK AO2 T00730059
KVUJ 200200Z AUTO 00000KT 10SM CLR 08/06 A3029 RMK AO2 T00770062
KVUJ 200140Z AUTO 00000KT 10SM CLR 08/07 A3028 RMK AO2 T00810067
KVUJ 200120Z AUTO 00000KT 10SM CLR 08/07 A3028 RMK AO2 T00830065
KVUJ 200100Z AUTO 00000KT 10SM CLR 09/07 A3028 RMK AO2 T00900071
KVUJ 200040Z AUTO 00000KT 10SM CLR 09/07 A3027 RMK AO2 T00940071
KVUJ 200020Z AUTO 00000KT 10SM CLR 10/08 A3027 RMK AO2 T00990078
KVUJ 200000Z AUTO 00000KT 10SM CLR 11/08 A3027 RMK AO2 T01110075
KVUJ 192340Z AUTO 00000KT 10SM CLR 12/08 A3027 RMK AO2 T01150081
KVUJ 192320Z AUTO 00000KT 10SM CLR 13/08 A3026 RMK AO2 T01310080
KVUJ 192300Z AUTO 00000KT 10SM CLR 15/08 A3026 RMK AO2 T01450080
KVUJ 192240Z AUTO 00000KT 10SM CLR 16/08 A3025 RMK AO2 T01600077
KVUJ 192220Z AUTO 00000KT 7SM CLR 18/07 A3025 RMK AO2 T01800071
KVUJ 192200Z AUTO 00000KT 10SM CLR 20/07 A3025 RMK AO2 T01990070
KVUJ 192140Z AUTO 00000KT 10SM CLR 23/05 A3025 RMK AO2 T02280048
KVUJ 192120Z AUTO 00000KT 10SM CLR 23/04 A3025 RMK AO2 T02330037
KVUJ 192100Z AUTO 00000KT 10SM CLR 24/04 A3025 RMK AO2 T02350040
KVUJ 192040Z AUTO 05005KT 10SM CLR 24/03 A3026 RMK AO2 T02400033